Time;durP1;ratioP1;P1;durP2;ratioP2;P2;SDS_P1;SDS_P2;PMS_P1;PMS_P2;Temp;Humidity;BMP_temperature;BMP_pressure;BME280_temperature;BME280_humidity;BME280_pressure;Samples;Min_cycle;Max_cycle;Signal;HPM_P1;HPM_P2
2022/09/08 00:01:13;;;;;;;19.73;9.90;;;;;;;12.02;100.00;99768.55;1764217;81;20928;-71
2022/09/08 00:03:46;;;;;;;17.73;9.53;;;;;;;12.06;100.00;99775.03;1761424;81;20908;-70
2022/09/08 00:06:17;;;;;;;20.77;10.05;;;;;;;12.12;100.00;99774.34;1764805;81;21539;-67
2022/09/08 00:08:46;;;;;;;20.88;11.40;;;;;;;12.21;100.00;99780.70;1764257;81;21036;-70
2022/09/08 00:11:18;;;;;;;26.23;11.00;;;;;;;12.17;100.00;99780.53;1764555;81;20919;-72
2022/09/08 00:13:44;;;;;;;17.98;10.48;;;;;;;12.08;100.00;99771.39;1764365;81;21412;-70
2022/09/08 00:16:18;;;;;;;28.17;11.53;;;;;;;12.01;100.00;99780.16;1764286;81;21006;-72
2022/09/08 00:18:44;;;;;;;23.42;10.35;;;;;;;12.04;100.00;99782.27;1764066;81;20892;-71
2022/09/08 00:21:12;;;;;;;19.55;11.40;;;;;;;12.10;100.00;99777.44;1764542;81;21495;-68
2022/09/08 00:23:39;;;;;;;21.30;10.63;;;;;;;12.13;100.00;99775.99;1764224;81;21136;-67
2022/09/08 00:26:06;;;;;;;20.27;10.78;;;;;;;12.07;100.00;99784.97;1764432;81;20845;-68
2022/09/08 00:28:34;;;;;;;18.35;9.88;;;;;;;12.01;100.00;99782.13;1764445;81;20881;-71
2022/09/08 00:31:05;;;;;;;24.23;10.65;;;;;;;12.01;100.00;99770.49;1764374;81;20928;-71
2022/09/08 00:33:33;;;;;;;20.57;11.63;;;;;;;12.02;100.00;99772.14;1763982;81;20983;-69
2022/09/08 00:36:03;;;;;;;20.45;10.25;;;;;;;12.04;100.00;99771.22;1764513;81;21132;-71
2022/09/08 00:38:32;;;;;;;21.57;11.60;;;;;;;12.07;100.00;99761.48;1764375;81;21039;-68
2022/09/08 00:40:59;;;;;;;21.37;11.33;;;;;;;12.17;100.00;99765.34;1764799;81;20921;-69
2022/09/08 00:43:41;;;;;;;20.15;11.08;;;;;;;12.27;100.00;99770.28;1764065;81;21397;-68
2022/09/08 00:46:25;;;;;;;18.02;11.40;;;;;;;12.35;100.00;99766.70;1763939;81;20876;-69
2022/09/08 00:49:11;;;;;;;24.90;11.63;;;;;;;12.39;100.00;99759.95;1763992;81;20932;-68
2022/09/08 00:51:41;;;;;;;22.30;11.57;;;;;;;12.38;100.00;99759.16;1763988;81;21409;-71
2022/09/08 00:54:10;;;;;;;20.90;11.28;;;;;;;12.37;100.00;99756.70;1764468;81;20887;-69
2022/09/08 00:56:43;;;;;;;20.55;11.68;;;;;;;12.39;100.00;99753.05;1764055;81;20863;-70
2022/09/08 00:59:10;;;;;;;21.25;11.40;;;;;;;12.46;100.00;99749.79;1764516;81;21506;-72
2022/09/08 01:01:39;;;;;;;24.55;11.60;;;;;;;12.49;100.00;99753.27;1764253;81;21156;-71
2022/09/08 01:04:05;;;;;;;18.55;10.88;;;;;;;12.48;100.00;99752.48;1764090;81;20974;-72
2022/09/08 01:12:53;;;;;;;23.18;11.00;;;;;;;12.39;100.00;99742.81;1764240;81;21538;-71
2022/09/08 01:15:23;;;;;;;18.90;10.88;;;;;;;12.33;100.00;99741.37;1764415;81;21111;-67
2022/09/08 01:17:54;;;;;;;20.23;11.15;;;;;;;12.29;100.00;99751.44;1763699;81;21419;-71
2022/09/08 01:20:49;;;;;;;19.80;11.68;;;;;;;12.33;100.00;99752.98;1764383;81;20942;-68
2022/09/08 01:23:36;;;;;;;21.65;12.43;;;;;;;12.36;100.00;99749.00;1764103;81;21293;-68
2022/09/08 01:26:36;;;;;;;25.48;12.80;;;;;;;12.31;100.00;99746.97;1763684;81;20939;-71
2022/09/08 01:29:05;;;;;;;19.65;12.10;;;;;;;12.28;100.00;99748.44;1764291;81;21052;-70
2022/09/08 01:31:38;;;;;;;20.00;11.68;;;;;;;12.25;100.00;99744.37;1764514;81;20954;-67
2022/09/08 01:34:04;;;;;;;19.50;11.65;;;;;;;12.28;100.00;99745.68;1764034;81;20902;-71
2022/09/08 01:36:31;;;;;;;23.67;12.75;;;;;;;12.28;100.00;99746.47;1764220;81;21467;-71
2022/09/08 01:38:57;;;;;;;24.25;12.47;;;;;;;12.27;100.00;99745.42;1764020;81;20875;-72
2022/09/08 01:41:30;;;;;;;26.17;13.30;;;;;;;12.25;100.00;99742.16;1764212;81;20958;-72
2022/09/08 01:43:58;;;;;;;26.37;12.33;;;;;;;12.25;100.00;99744.92;1749681;81;20956;-70
2022/09/08 01:46:28;;;;;;;23.27;12.07;;;;;;;12.28;100.00;99744.30;1741012;82;21034;-71
2022/09/08 01:48:55;;;;;;;23.22;12.65;;;;;;;12.29;100.00;99749.50;1764797;81;21048;-71
2022/09/08 01:51:21;;;;;;;23.02;12.47;;;;;;;12.25;100.00;99750.45;1764650;81;20906;-69
2022/09/08 01:53:49;;;;;;;22.07;12.58;;;;;;;12.25;100.00;99749.07;1764502;81;21168;-70
2022/09/08 01:56:17;;;;;;;24.20;12.07;;;;;;;12.32;100.00;99742.49;1764350;81;20808;-70
2022/09/08 01:58:45;;;;;;;23.60;12.98;;;;;;;12.41;100.00;99746.07;1764484;81;20891;-72
2022/09/08 02:01:11;;;;;;;22.98;12.58;;;;;;;12.45;100.00;99751.77;1764454;81;20914;-72
2022/09/08 02:03:40;;;;;;;25.20;13.22;;;;;;;12.46;100.00;99750.61;1764493;81;20915;-68
2022/09/08 02:06:13;;;;;;;28.27;14.15;;;;;;;12.48;100.00;99750.28;1738973;81;22179;-71
2022/09/08 02:08:43;;;;;;;;;;;;;;;12.48;100.00;99743.38;1767083;81;20958;-72
2022/09/08 02:11:10;;;;;;;23.47;14.00;;;;;;;12.47;100.00;99739.78;1739328;81;20131;-71
2022/09/08 02:13:38;;;;;;;20.85;11.83;;;;;;;12.50;100.00;99739.72;1764710;81;20906;-71
2022/09/08 02:16:07;;;;;;;23.87;13.40;;;;;;;12.53;100.00;99740.44;1764487;81;20935;-71
2022/09/08 02:18:33;;;;;;;26.15;12.80;;;;;;;12.54;100.00;99737.34;1764404;81;21495;-71
2022/09/08 02:21:13;;;;;;;24.87;13.85;;;;;;;12.56;100.00;99729.28;1764373;81;20867;-70
2022/09/08 02:23:44;;;;;;;22.10;13.05;;;;;;;12.57;100.00;99729.55;1740140;81;20982;-73
2022/09/08 02:26:23;;;;;;;22.35;13.03;;;;;;;12.60;100.00;99730.27;1764638;81;20966;-69
2022/09/08 02:28:54;;;;;;;23.32;12.68;;;;;;;12.61;100.00;99725.78;1764515;81;21061;-70
2022/09/08 02:31:21;;;;;;;26.52;14.00;;;;;;;12.61;100.00;99727.73;1764662;81;21062;-69
2022/09/08 02:33:48;;;;;;;30.57;14.15;;;;;;;12.61;100.00;99727.17;1764386;81;20914;-70
2022/09/08 02:36:15;;;;;;;26.75;13.83;;;;;;;12.57;100.00;99726.22;1764518;81;20891;-68
2022/09/08 02:38:41;;;;;;;22.82;12.88;;;;;;;12.52;100.00;99719.48;1764745;81;20956;-69
2022/09/08 02:41:16;;;;;;;23.75;12.82;;;;;;;12.47;100.00;99729.33;1764533;81;20890;-71
2022/09/08 02:43:49;;;;;;;21.65;12.65;;;;;;;12.36;100.00;99735.19;1767063;81;21010;-72
2022/09/08 02:46:22;;;;;;;20.15;12.53;;;;;;;12.20;100.00;99730.72;1760977;81;20944;-69
2022/09/08 02:48:48;;;;;;;23.05;13.35;;;;;;;12.15;100.00;99733.09;1761391;81;21425;-68
2022/09/08 02:51:17;;;;;;;23.65;12.75;;;;;;;12.14;100.00;99735.61;1768952;81;20899;-68
2022/09/08 02:53:43;;;;;;;22.58;13.45;;;;;;;12.01;100.00;99740.70;1749675;82;20928;-70
2022/09/08 02:56:10;;;;;;;19.95;12.15;;;;;;;11.88;100.00;99743.28;1749533;82;21022;-67
2022/09/08 02:58:38;;;;;;;19.52;11.88;;;;;;;11.88;100.00;99745.23;1749561;82;20985;-67
2022/09/08 03:01:05;;;;;;;18.60;10.53;;;;;;;11.91;100.00;99751.47;1761806;81;20904;-72
2022/09/08 03:03:33;;;;;;;20.72;11.78;;;;;;;11.92;100.00;99747.01;1761374;81;20996;-69
2022/09/08 03:06:04;;;;;;;19.90;11.35;;;;;;;11.97;100.00;99750.20;1761398;81;21555;-67
2022/09/08 03:08:34;;;;;;;20.65;11.65;;;;;;;12.02;100.00;99750.05;1761502;81;21550;-67
2022/09/08 03:11:01;;;;;;;20.20;11.60;;;;;;;12.03;100.00;99747.52;1761441;81;20916;-67
2022/09/08 03:13:28;;;;;;;22.10;12.58;;;;;;;12.02;100.00;99747.28;1761844;81;20888;-68
2022/09/08 03:15:54;;;;;;;21.73;12.82;;;;;;;12.05;100.00;99744.42;1761312;80;21477;-67
2022/09/08 03:18:21;;;;;;;25.40;13.15;;;;;;;12.08;100.00;99752.05;1761411;81;21468;-67
2022/09/08 03:20:50;;;;;;;21.12;12.58;;;;;;;12.05;100.00;99747.19;1769019;81;21049;-68
2022/09/08 03:23:19;;;;;;;23.95;13.22;;;;;;;12.03;100.00;99750.83;1710218;81;20941;-66
2022/09/08 03:25:50;;;;;;;20.43;12.90;;;;;;;11.97;100.00;99751.58;1761696;81;20980;-68
2022/09/08 03:28:21;;;;;;;21.45;12.40;;;;;;;11.91;100.00;99756.44;1761423;81;21441;-68
2022/09/08 03:30:51;;;;;;;22.35;12.65;;;;;;;11.86;100.00;99764.05;1768616;81;20919;-69
2022/09/08 03:33:20;;;;;;;24.07;12.40;;;;;;;11.79;100.00;99754.31;1748618;82;21956;-71
2022/09/08 03:35:47;;;;;;;25.15;13.53;;;;;;;11.81;100.00;99752.61;1748572;82;20985;-72
2022/09/08 03:38:17;;;;;;;20.35;12.40;;;;;;;11.86;100.00;99750.25;1749440;82;20850;-71
2022/09/08 03:40:44;;;;;;;22.77;13.95;;;;;;;11.88;100.00;99748.81;1721331;82;20921;-69
2022/09/08 03:43:11;;;;;;;27.32;13.28;;;;;;;11.87;100.00;99745.81;1750360;82;21053;-69
2022/09/08 03:45:45;;;;;;;28.23;14.03;;;;;;;11.83;100.00;99744.82;1752564;82;21221;-70
2022/09/08 03:48:13;;;;;;;23.07;12.60;;;;;;;11.85;100.00;99738.98;1725639;82;20984;-69
2022/09/08 03:50:39;;;;;;;21.40;11.97;;;;;;;11.89;100.00;99738.59;1748747;82;21111;-70
2022/09/08 03:53:08;;;;;;;20.10;11.50;;;;;;;11.93;100.00;99738.16;1748777;82;20881;-67
2022/09/08 03:55:34;;;;;;;24.82;12.05;;;;;;;11.97;100.00;99736.95;1749067;82;21390;-71
2022/09/08 03:58:01;;;;;;;23.77;12.28;;;;;;;11.98;100.00;99738.01;1748826;82;21789;-68
2022/09/08 04:00:28;;;;;;;22.45;11.93;;;;;;;12.00;100.00;99733.54;1748553;82;20877;-67
2022/09/08 04:02:57;;;;;;;23.25;13.18;;;;;;;12.01;100.00;99732.42;1748784;82;20946;-68
2022/09/08 04:05:26;;;;;;;24.07;13.00;;;;;;;12.01;100.00;99729.07;1748642;82;20981;-68
2022/09/08 04:07:53;;;;;;;25.75;13.10;;;;;;;12.01;100.00;99732.42;1748887;82;21028;-71
2022/09/08 04:10:19;;;;;;;24.43;13.22;;;;;;;12.00;100.00;99733.54;1725636;82;21146;-68
2022/09/08 04:12:47;;;;;;;23.70;12.93;;;;;;;12.00;100.00;99725.25;1748773;82;21422;-68
2022/09/08 04:15:14;;;;;;;20.60;12.55;;;;;;;12.03;100.00;99725.98;1748737;80;20913;-70
2022/09/08 04:17:42;;;;;;;23.90;14.47;;;;;;;12.01;100.00;99733.21;1748866;82;20929;-67
2022/09/08 04:20:13;;;;;;;20.30;11.88;;;;;;;12.00;100.00;99733.54;1749421;82;20945;-67
2022/09/08 04:22:39;;;;;;;21.42;12.28;;;;;;;11.99;100.00;99737.45;1749006;82;22155;-68
2022/09/08 04:25:06;;;;;;;24.80;12.15;;;;;;;12.05;100.00;99740.28;1749234;82;21464;-72
2022/09/08 04:27:35;;;;;;;29.90;13.58;;;;;;;12.10;100.00;99736.01;1748924;82;20929;-70
2022/09/08 04:30:05;;;;;;;27.42;14.13;;;;;;;12.17;100.00;99737.72;1748808;82;20996;-69
2022/09/08 04:32:38;;;;;;;26.87;13.98;;;;;;;12.23;100.00;99748.02;1748893;82;21067;-68
2022/09/08 04:35:05;;;;;;;29.80;15.55;;;;;;;12.23;100.00;99747.23;1748955;82;21099;-68
2022/09/08 04:37:35;;;;;;;26.97;14.38;;;;;;;12.20;100.00;99748.67;1748915;82;21517;-71
2022/09/08 04:40:03;;;;;;;33.67;15.08;;;;;;;12.26;100.00;99749.33;1702057;82;21029;-68
2022/09/08 04:42:31;;;;;;;29.37;14.10;;;;;;;12.32;100.00;99749.40;1748896;82;20985;-68
2022/09/08 04:44:58;;;;;;;28.42;13.78;;;;;;;12.34;100.00;99754.59;1745331;81;20988;-68
2022/09/08 04:47:26;;;;;;;25.32;13.35;;;;;;;12.38;100.00;99752.81;1745595;82;21193;-72
2022/09/08 04:49:55;;;;;;;25.15;14.10;;;;;;;12.43;100.00;99745.74;1745221;82;20897;-67
2022/09/08 04:52:24;;;;;;;28.10;14.03;;;;;;;12.52;100.00;99749.88;1739590;82;21003;-69
2022/09/08 04:54:55;;;;;;;32.33;12.68;;;;;;;12.61;100.00;99750.66;1752516;82;21016;-73
2022/09/08 04:57:25;;;;;;;26.55;12.53;;;;;;;12.74;100.00;99756.34;1752649;82;20885;-69
2022/09/08 04:59:53;;;;;;;24.80;11.10;;;;;;;12.88;100.00;99754.17;1752885;81;21092;-71
2022/09/08 05:02:21;;;;;;;26.33;11.55;;;;;;;13.00;100.00;99752.66;1752564;82;21011;-70
2022/09/08 05:04:47;;;;;;;29.30;12.70;;;;;;;13.19;100.00;99746.73;1752536;81;20988;-72
2022/09/08 05:07:15;;;;;;;31.50;12.78;;;;;;;13.34;100.00;99748.72;1752381;81;21493;-69
2022/09/08 05:09:46;;;;;;;24.82;11.05;;;;;;;13.47;100.00;99748.23;1752744;82;21004;-66
2022/09/08 05:12:18;;;;;;;31.50;12.15;;;;;;;13.58;100.00;99748.70;1752762;82;20912;-73
2022/09/08 05:14:45;;;;;;;25.35;12.20;;;;;;;13.70;100.00;99756.28;1752424;80;20958;-73
2022/09/08 05:17:11;;;;;;;31.23;11.45;;;;;;;13.79;100.00;99752.05;1752813;81;20968;-73
2022/09/08 05:19:40;;;;;;;22.85;11.55;;;;;;;13.89;100.00;99750.27;1752750;82;20975;-73
2022/09/08 05:22:08;;;;;;;38.05;11.28;;;;;;;13.99;100.00;99749.86;1752638;82;20997;-67
2022/09/08 05:24:35;;;;;;;26.37;10.75;;;;;;;14.12;100.00;99755.48;1752697;82;21039;-71
2022/09/08 05:27:03;;;;;;;31.02;10.95;;;;;;;14.23;100.00;99751.14;1752393;81;21532;-73
2022/09/08 05:29:30;;;;;;;21.27;10.08;;;;;;;14.36;100.00;99747.84;1752553;82;21503;-70
2022/09/08 05:31:57;;;;;;;20.32;9.05;;;;;;;14.54;100.00;99750.45;1752559;82;20948;-68
2022/09/08 05:34:25;;;;;;;27.90;9.95;;;;;;;14.71;100.00;99752.80;1726400;81;21011;-72
2022/09/08 05:36:52;;;;;;;20.37;7.60;;;;;;;14.87;100.00;99755.78;1752563;82;21773;-70
2022/09/08 05:39:21;;;;;;;36.98;8.23;;;;;;;15.00;100.00;99749.66;1752390;82;20941;-68
2022/09/08 05:41:50;;;;;;;23.67;6.47;;;;;;;15.15;100.00;99752.33;1752546;82;20972;-72
2022/09/08 05:44:17;;;;;;;25.23;6.40;;;;;;;15.28;99.21;99750.95;1747541;81;20957;-68
2022/09/08 05:46:46;;;;;;;12.82;6.30;;;;;;;15.41;95.70;99753.14;1743378;82;20957;-74
2022/09/08 05:49:13;;;;;;;20.23;6.50;;;;;;;15.53;93.79;99754.54;1743074;82;21008;-68
2022/09/08 05:51:40;;;;;;;20.82;6.65;;;;;;;15.66;93.91;99751.76;1718983;82;21066;-70
2022/09/08 05:54:08;;;;;;;20.48;6.20;;;;;;;15.78;90.16;99754.50;1720574;82;21481;-73
2022/09/08 05:56:34;;;;;;;17.25;6.35;;;;;;;15.90;88.57;99751.48;1743245;82;21368;-68
2022/09/08 05:59:01;;;;;;;31.00;7.33;;;;;;;16.02;90.09;99753.45;1743106;82;20964;-68
2022/09/08 06:01:30;;;;;;;25.97;6.42;;;;;;;16.13;87.71;99754.57;1743524;82;20979;-71
2022/09/08 06:03:59;;;;;;;18.87;6.62;;;;;;;16.23;87.12;99752.44;1743069;82;20949;-68
2022/09/08 06:06:46;;;;;;;24.05;6.75;;;;;;;16.31;87.35;99750.09;1743131;82;20956;-71
2022/09/08 06:09:16;;;;;;;17.30;5.45;;;;;;;16.41;85.69;99755.75;1743351;82;20928;-73
2022/09/08 06:11:43;;;;;;;26.70;5.78;;;;;;;16.53;84.28;99754.28;1743274;82;21048;-67
2022/09/08 06:14:12;;;;;;;10.65;3.75;;;;;;;16.67;84.86;99755.83;1743342;81;21145;-71
2022/09/08 06:19:16;;;;;;;10.55;3.58;;;;;;;16.90;78.55;99757.45;1700014;82;20965;-71
2022/09/08 06:21:43;;;;;;;18.02;4.22;;;;;;;17.06;75.02;99758.63;1743361;82;21025;-71
2022/09/08 06:24:10;;;;;;;14.75;3.77;;;;;;;17.20;75.50;99756.80;1743485;82;21764;-67
2022/09/08 06:27:18;;;;;;;11.63;3.90;;;;;;;17.30;75.72;99753.47;1697704;82;21249;-70
2022/09/08 06:30:09;;;;;;;11.00;3.65;;;;;;;17.37;73.73;99758.41;1743216;82;20933;-71
2022/09/08 06:33:09;;;;;;;12.65;3.45;;;;;;;17.48;72.79;99760.88;1743261;82;21032;-74
2022/09/08 06:35:55;;;;;;;13.62;3.77;;;;;;;17.60;72.75;99769.72;1743278;82;20921;-72
2022/09/08 06:38:28;;;;;;;8.85;2.92;;;;;;;17.69;72.68;99765.31;1712597;82;21012;-72
2022/09/08 06:41:07;;;;;;;8.08;3.12;;;;;;;17.78;71.47;99769.88;1743342;82;21254;-71
2022/09/08 06:43:51;;;;;;;5.37;2.98;;;;;;;17.87;67.45;99773.28;1743539;82;20889;-72
2022/09/08 06:46:25;;;;;;;9.33;2.72;;;;;;;18.01;66.14;99775.59;1743839;81;20942;-73
2022/09/08 06:48:54;;;;;;;14.25;3.75;;;;;;;18.12;66.47;99778.59;1743315;82;21037;-69
2022/09/08 06:51:55;;;;;;;10.30;3.92;;;;;;;18.21;66.33;99777.02;1743343;82;21025;-71
2022/09/08 06:54:33;;;;;;;9.23;3.45;;;;;;;18.27;65.71;99783.12;1743428;82;21050;-69
2022/09/08 06:57:37;;;;;;;11.88;4.20;;;;;;;18.36;63.37;99786.48;1743216;82;20937;-72
2022/09/08 07:00:22;;;;;;;11.93;4.75;;;;;;;18.43;63.03;99792.80;1743096;82;21016;-71
2022/09/08 07:03:26;;;;;;;14.03;4.90;;;;;;;18.54;63.91;99791.62;1743286;82;20969;-72
2022/09/08 07:06:07;;;;;;;14.30;4.47;;;;;;;18.60;62.79;99794.33;1733828;82;20995;-69
2022/09/08 07:09:15;;;;;;;16.15;4.47;;;;;;;18.66;61.14;99795.66;1764109;81;21150;-69
2022/09/08 07:11:57;;;;;;;6.85;3.87;;;;;;;18.71;60.83;99800.12;1791022;80;21020;-71
2022/09/08 07:14:57;;;;;;;14.00;3.77;;;;;;;18.79;58.97;99796.88;1790399;80;21047;-68
2022/09/08 07:17:37;;;;;;;10.80;4.33;;;;;;;18.89;57.87;99801.85;1748667;81;21505;-75
2022/09/08 07:20:13;;;;;;;9.73;3.60;;;;;;;18.99;54.42;99803.22;1764415;81;20921;-70
2022/09/08 07:23:05;;;;;;;16.80;4.62;;;;;;;19.06;54.19;99796.38;1756841;81;21318;-68
2022/09/08 07:25:58;;;;;;;10.43;2.72;;;;;;;19.13;54.59;99805.50;1756372;81;21007;-68
2022/09/08 07:28:31;;;;;;;7.37;3.15;;;;;;;19.20;53.63;99804.23;1756788;81;20857;-71
2022/09/08 07:31:38;;;;;;;9.48;3.42;;;;;;;19.28;53.82;99808.53;1732193;82;20958;-72
2022/09/08 07:34:13;;;;;;;8.68;2.62;;;;;;;19.36;52.71;99812.27;1762277;81;20962;-68
2022/09/08 07:36:52;;;;;;;6.10;3.20;;;;;;;19.44;54.53;99804.22;1791042;80;21117;-71
2022/09/08 07:39:41;;;;;;;7.05;3.22;;;;;;;19.50;54.39;99808.91;1791099;80;21576;-67
2022/09/08 07:42:16;;;;;;;8.25;3.00;;;;;;;19.57;54.50;99810.40;1790920;80;21012;-64
2022/09/08 07:44:46;;;;;;;4.92;2.62;;;;;;;19.67;54.39;99812.56;1766688;81;20974;-65
2022/09/08 08:46:06;;;;;;;5.60;2.45;;;;;;;21.13;44.94;99800.41;1765355;81;21017;-74
2022/09/08 09:50:01;;;;;;;20.72;4.10;;;;;;;22.41;39.01;99793.43;1684814;83;21032;-72
2022/09/08 09:52:39;;;;;;;6.85;3.00;;;;;;;22.51;37.99;99796.88;1686004;85;20917;-71
2022/09/08 09:55:29;;;;;;;9.45;3.65;;;;;;;22.64;36.23;99792.34;1685926;84;20889;-71
2022/09/08 09:58:52;;;;;;;12.18;3.02;;;;;;;22.59;35.60;99796.29;1686145;85;21493;-71
2022/09/08 10:05:25;;;;;;;6.35;3.60;;;;;;;22.75;37.67;99805.80;1688192;85;21555;-75
2022/09/08 10:08:37;;;;;;;7.22;2.72;;;;;;;22.77;35.82;99808.22;1689014;84;20925;-74
2022/09/08 10:11:55;;;;;;;6.97;3.33;;;;;;;22.89;38.04;99815.46;1689056;84;20952;-74
2022/09/08 10:14:46;;;;;;;7.33;3.95;;;;;;;23.11;37.44;99805.07;1689027;84;20971;-76
2022/09/08 10:18:11;;;;;;;5.85;3.55;;;;;;;23.31;36.90;99808.88;1689061;84;20979;-73
2022/09/08 10:21:11;;;;;;;11.80;4.20;;;;;;;23.44;37.14;99809.34;1689013;84;21290;-73
2022/09/08 10:24:31;;;;;;;9.50;3.67;;;;;;;23.53;36.39;99813.13;1689240;84;20916;-72
2022/09/08 10:27:52;;;;;;;17.55;5.83;;;;;;;23.61;36.55;99805.50;1689071;84;20877;-71
2022/09/08 10:30:56;;;;;;;49.88;6.42;;;;;;;23.71;36.66;99815.94;1654348;86;21111;-75
2022/09/08 10:33:54;;;;;;;7.12;4.25;;;;;;;23.76;36.70;99808.50;1654075;86;21056;-74
2022/09/08 10:37:01;;;;;;;8.98;4.05;;;;;;;23.86;36.55;99806.05;1684643;85;21520;-71
2022/09/08 10:40:04;;;;;;;9.30;4.35;;;;;;;23.92;36.79;99805.23;1684382;85;20931;-73
2022/09/08 10:42:51;;;;;;;7.03;4.30;;;;;;;24.01;36.20;99806.22;1688958;84;20959;-73
2022/09/08 10:46:14;;;;;;;8.40;4.47;;;;;;;24.10;35.40;99801.58;1689288;84;20979;-70
2022/09/08 10:49:14;;;;;;;6.08;4.05;;;;;;;24.04;35.74;99800.38;1688661;83;21676;-72
2022/09/08 10:52:15;;;;;;;9.50;4.35;;;;;;;24.15;36.18;99803.17;1681565;85;21445;-71
2022/09/08 10:55:35;;;;;;;6.70;3.72;;;;;;;24.21;35.11;99802.97;1688761;84;20951;-71
2022/09/08 10:58:32;;;;;;;8.43;4.00;;;;;;;24.22;34.60;99806.00;1688930;85;20888;-72
2022/09/08 11:01:54;;;;;;;9.08;3.85;;;;;;;24.22;33.18;99802.37;1689037;84;21296;-73
2022/09/08 11:05:17;;;;;;;10.90;3.70;;;;;;;24.10;33.49;99800.77;1688996;84;21020;-74
2022/09/08 11:08:07;;;;;;;8.00;3.72;;;;;;;24.02;32.41;99807.82;1689025;84;20920;-74
2022/09/08 11:10:52;;;;;;;7.05;4.37;;;;;;;23.86;33.20;99800.43;1688375;85;20936;-74
2022/09/08 11:13:51;;;;;;;8.63;3.90;;;;;;;23.87;33.33;99797.20;1680123;85;21035;-74
2022/09/08 11:17:01;;;;;;;8.65;4.15;;;;;;;23.99;34.04;99801.60;1668806;85;21019;-73
2022/09/08 11:19:46;;;;;;;13.78;5.42;;;;;;;24.16;33.33;99794.91;1669266;86;20980;-73
2022/09/08 11:23:02;;;;;;;10.13;4.72;;;;;;;24.29;33.20;99793.28;1669750;85;21172;-75
2022/09/08 11:26:17;;;;;;;9.50;3.65;;;;;;;24.28;32.04;99795.09;1690807;84;21002;-71
2022/09/08 11:29:05;;;;;;;6.85;3.90;;;;;;;24.12;32.13;99795.55;1652111;86;20988;-73
2022/09/08 11:32:11;;;;;;;12.25;4.75;;;;;;;24.13;32.54;99795.14;1688696;84;21031;-74
2022/09/08 11:35:07;;;;;;;16.48;4.90;;;;;;;24.25;32.01;99802.36;1664108;86;20861;-73
2022/09/08 11:38:17;;;;;;;11.57;5.80;;;;;;;24.14;31.40;99790.31;1684603;85;20983;-73
2022/09/08 11:41:18;;;;;;;18.27;5.97;;;;;;;24.00;32.35;99782.72;1662689;85;21056;-74
2022/09/08 11:44:08;;;;;;;14.30;5.77;;;;;;;24.13;32.23;99785.28;1688634;85;20989;-74
2022/09/08 11:47:10;;;;;;;9.85;6.12;;;;;;;24.27;32.30;99786.47;1657334;86;21087;-73
2022/09/08 11:50:12;;;;;;;15.78;5.22;;;;;;;24.34;32.52;99788.45;1686600;85;21039;-74
2022/09/08 11:53:11;;;;;;;11.48;5.92;;;;;;;24.38;31.68;99787.84;1686089;84;22196;-73
2022/09/08 11:55:56;;;;;;;8.90;5.33;;;;;;;24.50;32.67;99787.36;1686388;85;20849;-74
2022/09/08 11:59:06;;;;;;;59.45;8.95;;;;;;;24.61;32.63;99782.28;1647387;85;21104;-73
2022/09/08 12:02:07;;;;;;;10.72;4.87;;;;;;;24.67;31.71;99779.22;1685176;85;21437;-75
2022/09/08 12:05:02;;;;;;;11.68;5.30;;;;;;;24.65;31.77;99776.81;1672095;85;21031;-72
2022/09/08 12:07:59;;;;;;;13.50;5.20;;;;;;;24.71;31.87;99770.16;1686048;85;21809;-74
2022/09/08 12:10:56;;;;;;;8.68;4.67;;;;;;;24.74;32.61;99769.33;1685725;85;21417;-73
2022/09/08 12:13:55;;;;;;;11.75;4.65;;;;;;;24.90;32.63;99775.88;1670224;85;21482;-73
2022/09/08 12:17:17;;;;;;;8.13;4.65;;;;;;;25.07;32.29;99783.23;1686291;84;21039;-73
2022/09/08 12:20:29;;;;;;;11.30;5.28;;;;;;;25.10;31.56;99780.98;1686719;85;20932;-75
2022/09/08 12:23:20;;;;;;;12.90;5.20;;;;;;;25.10;30.96;99775.95;1683748;85;21401;-75
2022/09/08 12:26:48;;;;;;;12.93;5.50;;;;;;;25.15;31.07;99779.73;1682326;85;20959;-75
2022/09/08 12:29:55;;;;;;;13.75;5.20;;;;;;;25.22;31.79;99782.50;1686256;85;20915;-73
2022/09/08 12:33:16;;;;;;;7.97;4.30;;;;;;;25.30;31.40;99788.09;1677999;85;20976;-75
2022/09/08 12:36:24;;;;;;;10.00;5.40;;;;;;;25.28;31.16;99785.69;1686256;84;20929;-74
2022/09/08 12:39:30;;;;;;;11.08;5.70;;;;;;;25.28;30.94;99782.23;1707368;84;21429;-73
2022/09/08 12:42:53;;;;;;;21.15;7.33;;;;;;;25.26;30.76;99787.52;1707836;84;21556;-74
2022/09/08 12:46:13;;;;;;;16.40;7.42;;;;;;;25.03;30.24;99788.08;1686527;84;21460;-75
2022/09/08 12:49:25;;;;;;;19.12;7.78;;;;;;;24.84;31.30;99778.92;1685826;85;20940;-75
2022/09/08 12:52:41;;;;;;;18.30;8.20;;;;;;;24.88;31.39;99785.34;1686411;84;21043;-73
2022/09/08 12:55:53;;;;;;;12.60;7.70;;;;;;;24.88;31.54;99786.75;1674676;85;21408;-74
2022/09/08 12:59:24;;;;;;;16.67;8.00;;;;;;;24.91;31.75;99783.12;1685321;85;20975;-74
2022/09/08 13:06:11;;;;;;;14.07;8.55;;;;;;;24.83;31.00;99783.56;1652156;86;21092;-74
2022/09/08 13:09:09;;;;;;;18.52;9.05;;;;;;;24.68;31.30;99791.48;1642678;87;21003;-75
2022/09/08 13:12:08;;;;;;;18.42;9.73;;;;;;;24.65;31.91;99782.45;1642553;87;20984;-73
2022/09/08 13:15:04;;;;;;;19.87;9.85;;;;;;;24.54;32.19;99787.34;1642630;87;21003;-75
2022/09/08 13:17:58;;;;;;;22.73;8.38;;;;;;;24.21;31.36;99784.67;1627686;87;21084;-76
2022/09/08 13:20:37;;;;;;;18.15;8.90;;;;;;;24.05;31.76;99785.90;1656540;86;20985;-75
2022/09/08 13:23:29;;;;;;;16.25;9.03;;;;;;;24.07;32.21;99784.89;1656537;86;20936;-74
2022/09/08 13:26:54;;;;;;;26.73;8.43;;;;;;;24.04;32.64;99782.90;1656254;86;22215;-71
2022/09/08 13:30:28;;;;;;;12.88;7.30;;;;;;;24.03;32.96;99784.12;1660253;84;21491;-71
2022/09/08 13:33:35;;;;;;;17.73;8.10;;;;;;;24.07;33.14;99779.27;1685242;84;21014;-72
2022/09/08 13:36:26;;;;;;;13.55;7.87;;;;;;;24.11;33.04;99775.03;1656242;86;21028;-73
2022/09/08 13:39:46;;;;;;;25.02;8.73;;;;;;;24.12;32.86;99771.00;1688326;84;21491;-74
2022/09/08 13:43:00;;;;;;;14.18;7.92;;;;;;;24.01;32.13;99775.88;1687456;84;21214;-73
2022/09/08 13:45:47;;;;;;;22.15;7.37;;;;;;;23.94;32.56;99774.70;1657409;86;20917;-74
2022/09/08 13:49:17;;;;;;;12.63;7.50;;;;;;;23.96;32.55;99772.87;1665160;84;20969;-74
2022/09/08 13:52:42;;;;;;;16.80;7.20;;;;;;;23.83;31.92;99771.12;1663964;86;21014;-73
2022/09/08 13:55:43;;;;;;;20.60;7.53;;;;;;;23.75;33.42;99772.34;1685239;85;21433;-73
2022/09/08 13:58:38;;;;;;;14.25;7.17;;;;;;;23.76;33.39;99770.53;1685785;84;21236;-71
2022/09/08 14:01:50;;;;;;;13.03;6.37;;;;;;;23.72;32.85;99772.53;1685519;85;21446;-73
2022/09/08 14:04:37;;;;;;;11.93;6.70;;;;;;;23.61;33.27;99779.57;1679714;85;20957;-73
2022/09/08 14:07:15;;;;;;;17.37;7.17;;;;;;;23.61;33.12;99779.57;1685694;85;21016;-73
2022/09/08 14:09:43;;;;;;;12.70;7.58;;;;;;;23.57;32.64;99776.80;1685448;85;20924;-73
2022/09/08 14:12:23;;;;;;;26.73;8.08;;;;;;;23.53;32.96;99775.17;1658344;85;21128;-72
2022/09/08 14:15:19;;;;;;;13.35;6.78;;;;;;;23.51;33.08;99776.20;1672892;85;20905;-74
2022/09/08 14:18:35;;;;;;;11.50;6.83;;;;;;;23.49;33.27;99770.17;1686365;84;21488;-75
2022/09/08 14:21:45;;;;;;;13.25;7.22;;;;;;;23.46;33.48;99763.33;1683649;85;20965;-73
2022/09/08 14:24:56;;;;;;;16.27;7.25;;;;;;;23.44;33.60;99771.39;1609041;87;21103;-77
2022/09/08 14:28:01;;;;;;;32.78;9.15;;;;;;;23.33;33.51;99776.97;1644851;85;21594;-72
2022/09/08 14:30:38;;;;;;;23.25;7.85;;;;;;;23.25;33.88;99777.59;1671630;84;20961;-74
2022/09/08 14:33:18;;;;;;;15.83;6.40;;;;;;;23.24;34.04;99773.16;1658739;84;20988;-74
2022/09/08 14:36:02;;;;;;;12.55;6.25;;;;;;;23.19;33.61;99772.15;1685538;83;20937;-73
2022/09/08 14:38:48;;;;;;;10.78;5.62;;;;;;;23.14;33.40;99765.52;1622277;85;21052;-74
2022/09/08 14:41:30;;;;;;;37.17;7.30;;;;;;;23.05;33.93;99771.53;1684824;84;20948;-74
2022/09/08 14:44:31;;;;;;;20.48;7.03;;;;;;;23.00;34.35;99771.33;1685797;84;20921;-72
2022/09/08 14:47:26;;;;;;;16.55;8.28;;;;;;;22.95;34.61;99771.14;1681179;85;20937;-75